Time;durP1;ratioP1;P1;durP2;ratioP2;P2;SDS_P1;SDS_P2;PMS_P1;PMS_P2;Temp;Humidity;BMP_temperature;BMP_pressure;BME280_temperature;BME280_humidity;BME280_pressure;Samples;Min_cycle;Max_cycle;Signal;HPM_P1;HPM_P2
2021/09/10 00:00:45;;;;;;;10.07;6.63;;;21.80;99.90;;;;;;6160421;23;20156;-92
2021/09/10 00:03:11;;;;;;;7.83;6.43;;;21.70;99.90;;;;;;6161139;23;20183;-92
2021/09/10 00:05:36;;;;;;;8.63;6.07;;;21.80;99.90;;;;;;6161097;23;20149;-93
2021/09/10 00:08:02;;;;;;;9.57;6.70;;;21.80;99.90;;;;;;6160481;23;20166;-94
2021/09/10 00:10:28;;;;;;;8.63;6.73;;;21.80;99.90;;;;;;6160450;23;20179;-93
2021/09/10 00:12:54;;;;;;;8.33;5.97;;;21.90;99.90;;;;;;6160777;23;20489;-94
2021/09/10 00:15:20;;;;;;;10.30;6.37;;;21.90;99.90;;;;;;6161456;23;20147;-93
2021/09/10 00:17:46;;;;;;;9.17;6.63;;;22.00;99.90;;;;;;6161195;23;20156;-94
2021/09/10 00:20:12;;;;;;;7.93;6.03;;;22.00;99.90;;;;;;6160841;23;20137;-94
2021/09/10 00:22:38;;;;;;;11.20;6.23;;;22.10;99.90;;;;;;6161114;23;20147;-94
2021/09/10 00:25:04;;;;;;;9.27;6.40;;;22.10;99.90;;;;;;6160542;23;20174;-94
2021/09/10 00:27:32;;;;;;;7.77;6.27;;;22.10;99.90;;;;;;6160496;23;20222;-94
2021/09/10 00:29:58;;;;;;;7.63;6.17;;;22.10;99.90;;;;;;6160044;23;20180;-93
2021/09/10 00:32:23;;;;;;;9.37;6.13;;;22.00;99.90;;;;;;6160124;23;20178;-94
2021/09/10 00:34:49;;;;;;;9.23;6.37;;;22.10;99.90;;;;;;6160361;23;20144;-93
2021/09/10 00:37:15;;;;;;;8.53;6.27;;;21.90;99.90;;;;;;6159811;23;20174;-94
2021/09/10 00:39:40;;;;;;;8.63;6.53;;;21.90;99.90;;;;;;6160049;23;20145;-93
2021/09/10 00:42:06;;;;;;;6.80;5.70;;;21.90;99.90;;;;;;6160483;23;20175;-89
2021/09/10 00:44:32;;;;;;;8.67;5.87;;;21.90;99.90;;;;;;6160243;23;20611;-90
2021/09/10 00:46:58;;;;;;;8.93;5.27;;;21.90;99.90;;;;;;6160198;23;20608;-89
2021/09/10 00:49:25;;;;;;;6.20;5.60;;;21.90;99.90;;;;;;6160910;23;20243;-91
2021/09/10 00:51:51;;;;;;;8.70;6.50;;;21.80;99.90;;;;;;6160576;23;20190;-90
2021/09/10 00:54:18;;;;;;;9.67;6.43;;;21.80;99.90;;;;;;6160092;23;20144;-89
2021/09/10 00:56:45;;;;;;;11.70;6.50;;;21.70;99.90;;;;;;6160623;23;20151;-92
2021/09/10 00:59:10;;;;;;;7.70;5.70;;;21.70;99.90;;;;;;6160516;23;20140;-94
2021/09/10 01:01:37;;;;;;;11.17;6.37;;;21.90;99.90;;;;;;6160709;23;20188;-95
2021/09/10 01:04:03;;;;;;;8.03;6.47;;;21.90;99.90;;;;;;6160466;23;20148;-94
2021/09/10 01:06:29;;;;;;;7.30;5.80;;;21.80;99.90;;;;;;6160157;23;20153;-92
2021/09/10 01:08:57;;;;;;;8.60;5.90;;;21.80;99.90;;;;;;6160031;23;20152;-94
2021/09/10 01:11:24;;;;;;;7.97;5.70;;;21.70;99.90;;;;;;6160054;23;20189;-94
2021/09/10 01:13:51;;;;;;;8.87;6.17;;;21.70;99.90;;;;;;6160807;23;20144;-94
2021/09/10 01:16:18;;;;;;;8.07;5.83;;;21.60;99.90;;;;;;6160897;23;20178;-93
2021/09/10 01:18:43;;;;;;;11.00;6.60;;;21.60;99.90;;;;;;6160008;23;20229;-95
2021/09/10 01:21:09;;;;;;;9.07;6.00;;;21.70;99.90;;;;;;6160527;23;20601;-92
2021/09/10 01:23:35;;;;;;;8.33;5.57;;;21.60;99.90;;;;;;6160668;23;20573;-95
2021/09/10 01:26:02;;;;;;;7.80;5.53;;;21.60;99.90;;;;;;6160414;23;20177;-90
2021/09/10 01:28:28;;;;;;;9.17;6.43;;;21.60;99.90;;;;;;6160632;23;20148;-90
2021/09/10 01:30:53;;;;;;;7.83;5.67;;;21.60;99.90;;;;;;6161166;23;20203;-95
2021/09/10 01:33:19;;;;;;;7.87;5.63;;;21.50;99.90;;;;;;6160800;23;20147;-94
2021/09/10 01:35:45;;;;;;;6.87;5.73;;;21.50;99.90;;;;;;6160608;23;20150;-93
2021/09/10 01:38:11;;;;;;;8.67;5.90;;;21.50;99.90;;;;;;6160899;23;20608;-96
2021/09/10 01:40:38;;;;;;;8.47;5.47;;;21.50;99.90;;;;;;6160925;23;20147;-93
2021/09/10 01:43:05;;;;;;;8.87;5.33;;;21.50;99.90;;;;;;6160631;23;20139;-94
2021/09/10 01:45:31;;;;;;;6.53;5.47;;;21.50;99.90;;;;;;6160780;23;20144;-95
2021/09/10 01:47:57;;;;;;;6.93;5.50;;;21.50;99.90;;;;;;6160985;23;20239;-94
2021/09/10 01:50:25;;;;;;;8.43;5.63;;;21.50;99.90;;;;;;6160878;23;20226;-91
2021/09/10 01:52:51;;;;;;;11.03;5.87;;;21.50;99.90;;;;;;6161486;23;20171;-95
2021/09/10 01:55:17;;;;;;;9.00;6.47;;;21.50;99.90;;;;;;6160609;23;20199;-89
2021/09/10 01:57:46;;;;;;;8.43;5.80;;;21.50;99.90;;;;;;6160585;23;20167;-89
2021/09/10 02:00:13;;;;;;;7.23;5.47;;;21.40;99.90;;;;;;6160523;23;20835;-89
2021/09/10 02:02:39;;;;;;;6.27;5.13;;;21.50;99.90;;;;;;6160856;23;20230;-90
2021/09/10 02:05:06;;;;;;;8.77;5.43;;;21.40;99.90;;;;;;6158566;23;20577;-91
2021/09/10 02:07:31;;;;;;;9.43;5.97;;;21.50;99.90;;;;;;6159849;23;20175;-92
2021/09/10 02:09:57;;;;;;;8.43;6.50;;;21.40;99.90;;;;;;6158803;23;20201;-94
2021/09/10 02:12:23;;;;;;;8.83;5.77;;;21.30;99.90;;;;;;6157242;23;20162;-93
2021/09/10 02:14:49;;;;;;;10.70;6.37;;;21.20;99.90;;;;;;6157609;23;20144;-94
2021/09/10 02:17:14;;;;;;;9.77;6.30;;;21.30;99.90;;;;;;6157618;23;20607;-92
2021/09/10 02:19:40;;;;;;;7.27;6.03;;;21.20;99.90;;;;;;6159089;23;20152;-93
2021/09/10 02:22:06;;;;;;;10.23;5.83;;;21.20;99.90;;;;;;6159363;23;20186;-92
2021/09/10 02:24:31;;;;;;;9.93;5.63;;;21.20;99.90;;;;;;6159214;23;20566;-93
2021/09/10 02:26:57;;;;;;;7.13;5.63;;;21.30;99.90;;;;;;6159767;23;20148;-93
2021/09/10 02:29:23;;;;;;;8.73;6.77;;;21.30;99.90;;;;;;6159920;23;20488;-93
2021/09/10 02:31:49;;;;;;;8.97;6.70;;;21.30;99.90;;;;;;6159603;23;20175;-89
2021/09/10 02:34:15;;;;;;;13.67;6.23;;;21.10;99.90;;;;;;6159149;23;20585;-92
2021/09/10 02:36:40;;;;;;;8.30;6.33;;;21.20;99.90;;;;;;6159744;23;20202;-90
2021/09/10 02:39:08;;;;;;;10.70;6.87;;;21.20;99.90;;;;;;6159554;23;20577;-91
2021/09/10 02:41:35;;;;;;;11.63;7.17;;;21.30;99.90;;;;;;6160044;23;20282;-93
2021/09/10 02:44:02;;;;;;;8.83;6.13;;;21.30;99.90;;;;;;6159731;23;20607;-92
2021/09/10 02:46:28;;;;;;;7.87;6.63;;;21.30;99.90;;;;;;6162095;23;20141;-94
2021/09/10 02:48:53;;;;;;;11.30;7.33;;;21.40;99.90;;;;;;6162246;23;20151;-93
2021/09/10 02:51:19;;;;;;;11.37;7.47;;;21.30;99.90;;;;;;6163112;23;20194;-93
2021/09/10 02:53:44;;;;;;;12.37;6.77;;;21.30;99.90;;;;;;6167082;23;20174;-89
2021/09/10 02:56:10;;;;;;;11.30;7.17;;;21.40;99.90;;;;;;6164335;23;20644;-89
2021/09/10 02:58:36;;;;;;;13.60;7.30;;;21.40;99.90;;;;;;6164484;23;20683;-89
2021/09/10 03:01:02;;;;;;;13.00;7.57;;;21.40;99.90;;;;;;6160569;23;20167;-89
2021/09/10 03:03:29;;;;;;;10.70;7.53;;;21.40;99.90;;;;;;6160944;23;20143;-89
2021/09/10 03:05:55;;;;;;;14.77;7.77;;;21.30;99.90;;;;;;6161029;23;20155;-92
2021/09/10 03:08:22;;;;;;;12.97;8.20;;;21.30;99.90;;;;;;6161186;23;20227;-89
2021/09/10 03:10:48;;;;;;;11.93;7.17;;;21.20;99.90;;;;;;6160633;23;20647;-89
2021/09/10 03:13:17;;;;;;;11.70;8.10;;;21.30;99.90;;;;;;6161564;23;20143;-89
2021/09/10 03:15:42;;;;;;;14.47;8.20;;;21.30;99.90;;;;;;6160944;23;20158;-91
2021/09/10 03:18:08;;;;;;;11.83;7.33;;;21.20;99.90;;;;;;6160753;23;20164;-91
2021/09/10 03:20:34;;;;;;;11.80;7.97;;;21.20;99.90;;;;;;6160894;23;20142;-90
2021/09/10 03:22:59;;;;;;;9.50;6.73;;;21.20;99.90;;;;;;6160714;23;20591;-89
2021/09/10 03:25:25;;;;;;;9.73;6.90;;;21.20;99.90;;;;;;6161055;23;20174;-90
2021/09/10 03:27:52;;;;;;;12.03;8.30;;;21.20;99.90;;;;;;6161138;23;20167;-96
2021/09/10 03:30:19;;;;;;;10.57;7.17;;;21.20;99.90;;;;;;6161239;23;20683;-96
2021/09/10 03:32:45;;;;;;;8.67;7.10;;;21.20;99.90;;;;;;6160373;23;20223;-93
2021/09/10 03:35:10;;;;;;;9.03;6.70;;;21.20;99.90;;;;;;6161305;23;20169;-93
2021/09/10 03:37:36;;;;;;;9.67;7.03;;;21.00;99.90;;;;;;6160914;23;20168;-94
2021/09/10 03:40:03;;;;;;;10.30;6.23;;;21.10;99.90;;;;;;6163446;23;20195;-91
2021/09/10 03:42:29;;;;;;;9.73;6.43;;;21.20;99.90;;;;;;6166071;23;20163;-93
2021/09/10 03:44:54;;;;;;;11.33;7.67;;;21.20;99.90;;;;;;6162706;23;20144;-95
2021/09/10 03:47:20;;;;;;;15.17;8.23;;;21.20;99.90;;;;;;6160985;23;20165;-89
2021/09/10 03:49:47;;;;;;;12.20;7.93;;;21.30;99.90;;;;;;6160253;23;20497;-93
2021/09/10 03:52:12;;;;;;;12.47;8.00;;;21.20;99.90;;;;;;6160259;23;20188;-93
2021/09/10 03:54:38;;;;;;;15.17;9.20;;;21.20;99.90;;;;;;6160771;23;20179;-94
2021/09/10 03:57:04;;;;;;;12.93;8.30;;;21.20;99.90;;;;;;6160988;23;20526;-95
2021/09/10 03:59:30;;;;;;;13.70;8.13;;;21.10;99.90;;;;;;6160772;23;20221;-92
2021/09/10 04:01:56;;;;;;;13.57;9.00;;;21.10;99.90;;;;;;6160053;23;20178;-94
2021/09/10 04:04:22;;;;;;;14.30;9.40;;;21.10;99.90;;;;;;6160421;23;20144;-95
2021/09/10 04:06:48;;;;;;;16.43;10.03;;;21.10;99.90;;;;;;6160436;23;20148;-93
2021/09/10 04:09:14;;;;;;;15.47;10.20;;;21.10;99.90;;;;;;6160486;23;20141;-94
2021/09/10 04:11:39;;;;;;;14.20;9.30;;;21.10;99.90;;;;;;6160295;23;20182;-95
2021/09/10 04:14:05;;;;;;;15.10;8.90;;;21.00;99.90;;;;;;6160472;23;20175;-93
2021/09/10 04:16:33;;;;;;;12.90;8.30;;;20.90;99.90;;;;;;6160304;23;20148;-93
2021/09/10 04:18:59;;;;;;;11.23;7.40;;;21.00;99.90;;;;;;6160764;23;20175;-93
2021/09/10 04:21:25;;;;;;;10.87;7.80;;;20.90;99.90;;;;;;6159139;23;20586;-94
2021/09/10 04:23:51;;;;;;;15.23;7.93;;;20.80;99.90;;;;;;6159340;23;20150;-89
2021/09/10 04:26:17;;;;;;;11.93;7.13;;;20.90;99.90;;;;;;6159406;23;20463;-92
2021/09/10 04:28:46;;;;;;;11.50;6.43;;;20.90;99.90;;;;;;6161793;23;20242;-93
2021/09/10 04:31:15;;;;;;;11.80;6.17;;;20.90;99.90;;;;;;6160555;23;20179;-94
2021/09/10 04:33:41;;;;;;;11.03;6.13;;;20.90;99.90;;;;;;6160581;23;20150;-92
2021/09/10 04:36:07;;;;;;;10.07;5.90;;;21.10;99.90;;;;;;6160741;23;20150;-94
2021/09/10 04:38:33;;;;;;;7.07;5.13;;;21.10;99.90;;;;;;6160364;23;20203;-92
2021/09/10 04:40:58;;;;;;;9.57;5.40;;;21.00;99.90;;;;;;6160756;23;20660;-95
2021/09/10 04:43:24;;;;;;;6.07;4.73;;;21.10;99.90;;;;;;6157956;23;20162;-91
2021/09/10 04:45:50;;;;;;;9.73;5.40;;;21.00;99.90;;;;;;6158452;23;20150;-95
2021/09/10 04:48:26;;;;;;;8.27;5.60;;;21.00;99.90;;;;;;6163105;23;20156;-93
2021/09/10 04:50:51;;;;;;;8.83;5.50;;;21.00;99.90;;;;;;6162534;23;20697;-95
2021/09/10 04:53:17;;;;;;;10.33;6.23;;;21.00;99.90;;;;;;6159948;23;20149;-90
2021/09/10 04:55:43;;;;;;;9.83;6.07;;;20.90;99.90;;;;;;6160025;23;20487;-90
2021/09/10 04:58:08;;;;;;;6.07;5.43;;;20.80;99.90;;;;;;6152885;23;20214;-90
2021/09/10 05:00:34;;;;;;;7.37;4.83;;;20.80;99.90;;;;;;6159911;23;20473;-90
2021/09/10 05:03:00;;;;;;;9.37;6.10;;;20.90;99.90;;;;;;6189942;23;20151;-92
2021/09/10 05:05:27;;;;;;;7.70;5.77;;;20.90;99.90;;;;;;6162049;23;20149;-90
2021/09/10 05:07:54;;;;;;;7.13;4.77;;;20.90;99.90;;;;;;6169790;23;20161;-91
2021/09/10 05:10:20;;;;;;;9.07;5.10;;;21.00;99.90;;;;;;6168875;23;20187;-93
2021/09/10 05:12:49;;;;;;;7.97;5.83;;;21.00;99.90;;;;;;6164812;23;20148;-90
2021/09/10 05:15:14;;;;;;;8.07;5.87;;;21.00;99.90;;;;;;6159943;23;20157;-91
2021/09/10 05:17:40;;;;;;;7.47;5.60;;;21.00;99.90;;;;;;6160536;23;20151;-93
2021/09/10 05:20:08;;;;;;;6.97;5.60;;;21.10;99.90;;;;;;6160649;23;20151;-94
2021/09/10 05:22:33;;;;;;;9.47;5.53;;;21.10;99.90;;;;;;6160517;23;20496;-94
2021/09/10 05:24:59;;;;;;;10.63;5.33;;;21.00;99.90;;;;;;6159070;23;20148;-93
2021/09/10 05:27:25;;;;;;;10.23;5.40;;;21.00;99.90;;;;;;6159714;23;20177;-93
2021/09/10 05:29:50;;;;;;;7.13;5.63;;;21.00;99.90;;;;;;6162247;23;20180;-92
2021/09/10 05:32:16;;;;;;;8.87;6.77;;;21.10;99.90;;;;;;6163226;23;20227;-91
2021/09/10 05:34:42;;;;;;;13.50;5.87;;;21.00;99.90;;;;;;6162200;23;20148;-91
2021/09/10 05:37:07;;;;;;;10.53;5.73;;;21.10;99.90;;;;;;6162246;23;20167;-91
2021/09/10 05:39:33;;;;;;;7.77;5.43;;;21.10;99.90;;;;;;6160078;23;20147;-91
2021/09/10 05:41:59;;;;;;;8.20;6.20;;;21.10;99.90;;;;;;6158868;23;20160;-95
2021/09/10 05:44:24;;;;;;;9.97;5.90;;;21.30;99.90;;;;;;6158722;23;20155;-95
2021/09/10 05:46:50;;;;;;;9.33;5.63;;;21.40;99.90;;;;;;6161118;23;20144;-94
2021/09/10 05:49:16;;;;;;;11.80;6.60;;;21.40;99.90;;;;;;6161976;23;20152;-95
2021/09/10 05:51:41;;;;;;;10.53;6.70;;;21.50;99.90;;;;;;6158748;23;20667;-95
2021/09/10 05:54:07;;;;;;;9.83;6.50;;;21.50;99.90;;;;;;6163548;23;20232;-96
2021/09/10 05:56:33;;;;;;;13.50;7.00;;;21.40;99.90;;;;;;6163637;23;20152;-94
2021/09/10 05:59:04;;;;;;;9.77;7.17;;;21.40;99.90;;;;;;6162796;23;20188;-93
2021/09/10 06:01:30;;;;;;;14.63;7.90;;;21.30;99.90;;;;;;6175687;23;20147;-93
2021/09/10 06:03:56;;;;;;;12.67;7.90;;;21.20;99.90;;;;;;6203173;23;20190;-95
2021/09/10 06:06:22;;;;;;;13.13;7.73;;;21.20;99.90;;;;;;6153897;23;20153;-96
2021/09/10 06:08:52;;;;;;;12.30;8.13;;;21.30;99.90;;;;;;6178374;23;20206;-95
2021/09/10 06:11:20;;;;;;;15.17;8.40;;;21.30;99.90;;;;;;6180479;23;20186;-95
2021/09/10 06:13:49;;;;;;;14.60;7.83;;;21.30;99.90;;;;;;6181301;23;20183;-96
2021/09/10 06:16:39;;;;;;;12.67;8.17;;;21.30;99.90;;;;;;6179794;23;20142;-96
2021/09/10 06:19:06;;;;;;;13.97;8.37;;;21.40;99.90;;;;;;6179777;23;20152;-96
2021/09/10 06:21:34;;;;;;;12.70;8.10;;;21.40;99.90;;;;;;6181170;23;20148;-96
2021/09/10 06:24:01;;;;;;;12.93;8.53;;;21.40;99.90;;;;;;6206855;23;20147;-92
2021/09/10 06:26:41;;;;;;;14.03;8.23;;;21.40;99.90;;;;;;6201307;23;20147;-93
2021/09/10 06:29:08;;;;;;;14.40;8.43;;;21.50;99.90;;;;;;6175850;23;20155;-95
2021/09/10 06:31:34;;;;;;;12.23;7.87;;;21.50;99.90;;;;;;6176601;23;20229;-93
2021/09/10 06:34:00;;;;;;;12.30;8.70;;;21.60;99.90;;;;;;6153732;23;20184;-94
2021/09/10 06:36:28;;;;;;;13.73;8.10;;;21.60;99.90;;;;;;6178920;23;20150;-92
2021/09/10 06:38:54;;;;;;;13.83;8.43;;;21.60;99.90;;;;;;6180411;23;20144;-93
2021/09/10 06:41:23;;;;;;;13.97;8.40;;;21.60;99.90;;;;;;6199423;23;20163;-92
2021/09/10 06:43:49;;;;;;;15.40;8.30;;;21.60;99.90;;;;;;6175182;23;20144;-92
2021/09/10 06:46:16;;;;;;;13.50;8.37;;;21.70;99.90;;;;;;6175602;23;20179;-93
2021/09/10 06:48:42;;;;;;;10.87;7.73;;;21.70;99.90;;;;;;6174011;23;20141;-91
2021/09/10 06:51:08;;;;;;;12.10;7.73;;;21.90;99.90;;;;;;6169412;23;20190;-93
2021/09/10 06:53:35;;;;;;;12.20;7.77;;;21.90;99.90;;;;;;6170376;23;20183;-95
2021/09/10 06:56:01;;;;;;;9.93;7.07;;;22.00;99.90;;;;;;6198108;23;20143;-92
2021/09/10 06:58:33;;;;;;;10.40;6.50;;;22.10;99.90;;;;;;6173222;23;20144;-92
2021/09/10 07:00:58;;;;;;;10.90;7.10;;;22.00;99.90;;;;;;6172307;23;20155;-91
2021/09/10 07:03:24;;;;;;;14.63;7.27;;;22.20;99.90;;;;;;6149126;23;20150;-94
2021/09/10 07:05:50;;;;;;;11.93;7.27;;;22.10;99.90;;;;;;6207662;23;20145;-95
2021/09/10 07:08:18;;;;;;;8.47;6.93;;;22.00;99.90;;;;;;6182498;23;20159;-92
2021/09/10 07:10:44;;;;;;;11.37;7.73;;;22.00;99.90;;;;;;6185168;23;20173;-96
2021/09/10 07:13:09;;;;;;;11.27;6.77;;;22.30;99.90;;;;;;6186686;23;20209;-95
2021/09/10 07:15:36;;;;;;;13.50;7.37;;;22.30;99.90;;;;;;6210304;23;20128;-96
2021/09/10 07:18:02;;;;;;;10.83;7.30;;;22.30;99.90;;;;;;6203645;23;20139;-91
2021/09/10 07:20:27;;;;;;;10.43;6.53;;;22.40;99.90;;;;;;6163686;23;20267;-92
2021/09/10 07:22:53;;;;;;;11.27;7.10;;;22.50;99.90;;;;;;6165042;23;20149;-91
2021/09/10 07:25:22;;;;;;;10.67;7.00;;;22.40;99.90;;;;;;6193561;23;20198;-94
2021/09/10 07:27:47;;;;;;;11.40;7.30;;;22.30;99.90;;;;;;6163078;23;20162;-95
2021/09/10 07:30:13;;;;;;;10.73;7.20;;;22.30;99.90;;;;;;6163291;23;20553;-91
2021/09/10 07:32:40;;;;;;;12.07;7.23;;;22.30;99.90;;;;;;6164592;23;20190;-92
2021/09/10 07:35:07;;;;;;;13.57;7.53;;;22.40;99.90;;;;;;6165059;23;20148;-91
2021/09/10 07:37:33;;;;;;;13.87;7.57;;;22.50;99.90;;;;;;6166997;23;20521;-91
2021/09/10 07:40:00;;;;;;;10.90;6.40;;;22.60;99.90;;;;;;6163142;23;20620;-91
2021/09/10 07:42:27;;;;;;;10.80;7.30;;;22.60;99.90;;;;;;6194360;23;20148;-96
2021/09/10 07:44:59;;;;;;;11.57;7.27;;;22.70;99.90;;;;;;6175910;23;20141;-96
2021/09/10 07:47:24;;;;;;;13.07;7.30;;;22.70;99.90;;;;;;6174068;23;20148;-96
2021/09/10 07:49:51;;;;;;;13.07;7.70;;;22.80;99.90;;;;;;6175858;23;20150;-96
2021/09/10 07:52:19;;;;;;;12.83;8.13;;;22.80;99.90;;;;;;6201750;23;20171;-96
2021/09/10 07:54:44;;;;;;;11.97;7.90;;;22.60;99.90;;;;;;6173024;23;20240;-96
2021/09/10 07:57:11;;;;;;;12.70;7.40;;;22.60;99.90;;;;;;6173419;23;20208;-94
2021/09/10 07:59:37;;;;;;;13.63;7.17;;;22.70;99.90;;;;;;6174229;23;20175;-94
2021/09/10 08:02:03;;;;;;;16.10;7.23;;;22.80;99.90;;;;;;6173515;23;20152;-96
2021/09/10 08:04:29;;;;;;;13.77;7.07;;;22.90;99.90;;;;;;6148207;23;20623;-94
2021/09/10 08:06:56;;;;;;;12.73;7.37;;;22.90;99.90;;;;;;6173623;23;20144;-96
2021/09/10 08:09:23;;;;;;;14.53;7.43;;;23.00;99.90;;;;;;6174162;23;20155;-95
2021/09/10 08:11:49;;;;;;;12.27;7.90;;;22.90;99.90;;;;;;6173858;23;20187;-95
2021/09/10 08:14:15;;;;;;;12.13;6.80;;;23.00;99.90;;;;;;6176838;23;20141;-96
2021/09/10 08:16:40;;;;;;;10.70;6.53;;;23.00;99.90;;;;;;6171356;23;20212;-95
2021/09/10 08:19:06;;;;;;;11.37;7.10;;;23.00;99.90;;;;;;6169553;23;20151;-96
2021/09/10 08:21:34;;;;;;;11.80;6.93;;;22.90;99.90;;;;;;6197739;23;20137;-95
2021/09/10 08:24:01;;;;;;;10.23;7.17;;;22.90;99.90;;;;;;6173978;23;20153;-96
2021/09/10 08:26:27;;;;;;;11.50;7.53;;;22.90;99.90;;;;;;6171549;23;20140;-96
2021/09/10 08:28:53;;;;;;;11.43;7.60;;;22.90;99.90;;;;;;6166349;23;20159;-94
2021/09/10 08:31:19;;;;;;;13.20;7.33;;;23.00;99.90;;;;;;6167949;23;20176;-94
2021/09/10 08:33:46;;;;;;;11.17;8.00;;;22.80;99.90;;;;;;6167638;23;20188;-96
2021/09/10 08:36:12;;;;;;;12.50;7.77;;;22.80;99.90;;;;;;6165678;23;20211;-95
2021/09/10 08:38:37;;;;;;;15.93;8.67;;;22.90;99.90;;;;;;6165329;23;20154;-96
2021/09/10 08:41:04;;;;;;;11.77;8.27;;;22.90;99.90;;;;;;6165603;23;20242;-96
2021/09/10 08:43:31;;;;;;;11.83;8.33;;;23.10;99.90;;;;;;6166668;23;20223;-96
2021/09/10 08:45:59;;;;;;;16.10;8.10;;;23.30;99.90;;;;;;6141664;23;20149;-95
2021/09/10 08:48:27;;;;;;;12.73;7.00;;;23.20;99.90;;;;;;6166854;23;20203;-96
2021/09/10 08:50:55;;;;;;;13.23;8.50;;;23.30;99.90;;;;;;6163600;23;20200;-96
2021/09/10 08:53:22;;;;;;;12.83;8.67;;;23.50;99.90;;;;;;6162983;23;20149;-96
2021/09/10 08:55:47;;;;;;;16.50;9.77;;;23.40;99.90;;;;;;6165286;23;20148;-95
2021/09/10 08:58:13;;;;;;;16.47;11.03;;;23.40;99.90;;;;;;6165883;23;20179;-96
2021/09/10 09:00:41;;;;;;;20.43;10.70;;;23.30;99.90;;;;;;6166147;23;20147;-96
2021/09/10 09:03:09;;;;;;;17.73;11.93;;;23.20;99.90;;;;;;6165370;23;20217;-96
2021/09/10 09:05:37;;;;;;;15.07;11.33;;;23.20;99.90;;;;;;6164792;23;20144;-96
2021/09/10 09:08:24;;;;;;;15.83;11.97;;;23.10;99.90;;;;;;6166488;23;20152;-96
2021/09/10 09:11:01;;;;;;;15.83;11.90;;;22.90;99.90;;;;;;6164866;23;20180;-96
2021/09/10 09:13:27;;;;;;;14.67;11.87;;;22.80;99.90;;;;;;6166018;23;20153;-96
2021/09/10 09:16:23;;;;;;;18.60;12.13;;;22.70;99.90;;;;;;6166589;23;20520;-96
2021/09/10 09:19:01;;;;;;;15.73;11.27;;;22.70;99.90;;;;;;6167104;23;20152;-96
2021/09/10 09:21:29;;;;;;;20.60;11.53;;;22.70;99.90;;;;;;6170596;23;20160;-96
2021/09/10 09:24:16;;;;;;;19.17;12.57;;;22.80;99.90;;;;;;6167953;23;20216;-95
2021/09/10 09:26:44;;;;;;;17.67;11.80;;;22.90;99.90;;;;;;6173900;23;20197;-95
2021/09/10 09:29:16;;;;;;;14.83;10.87;;;23.00;99.90;;;;;;6171546;23;20144;-95
2021/09/10 09:31:54;;;;;;;16.87;10.57;;;23.10;99.90;;;;;;6171663;23;20252;-96
2021/09/10 09:34:46;;;;;;;16.23;11.37;;;23.00;99.90;;;;;;6170776;23;20172;-95
2021/09/10 09:37:13;;;;;;;17.77;11.97;;;23.00;99.90;;;;;;6170665;23;20206;-96
2021/09/10 09:39:59;;;;;;;18.80;12.53;;;22.90;99.90;;;;;;6171575;23;20154;-96
2021/09/10 09:42:36;;;;;;;18.03;12.37;;;23.00;99.90;;;;;;6171497;23;20152;-96
2021/09/10 09:45:16;;;;;;;23.40;14.33;;;23.00;99.90;;;;;;6170497;23;20155;-96
2021/09/10 09:47:43;;;;;;;18.83;14.50;;;22.90;99.90;;;;;;6170464;23;20168;-95
2021/09/10 09:50:12;;;;;;;19.93;14.80;;;22.80;99.90;;;;;;6143053;23;20176;-96
2021/09/10 09:52:56;;;;;;;18.37;14.53;;;22.70;99.90;;;;;;6142800;23;20259;-96
2021/09/10 09:55:34;;;;;;;20.87;15.10;;;22.60;99.90;;;;;;6169504;23;20144;-96
2021/09/10 10:01:26;;;;;;;19.90;14.53;;;22.40;99.90;;;;;;6188815;23;20227;-96
2021/09/10 10:03:54;;;;;;;23.13;15.83;;;22.40;99.90;;;;;;6167050;23;20223;-96
2021/09/10 10:07:03;;;;;;;;;;;;;;;;;;;;;
2021/09/10 10:10:41;;;;;;;22.83;16.00;;;22.00;99.90;;;;;;6155399;23;20215;-96
2021/09/10 10:13:31;;;;;;;;;;;;;;;;;;;;;
2021/09/10 10:15:57;;;;;;;27.60;15.47;;;21.70;99.90;;;;;;6060073;23;20224;-96
2021/09/10 10:26:10;;;;;;;25.10;16.33;;;21.60;99.90;;;;;;6115484;23;20170;-95
2021/09/10 10:29:47;;;;;;;;;;;;;;;;;;;;;
2021/09/10 10:32:34;;;;;;;24.23;15.27;;;21.60;99.90;;;;;;6175331;23;20191;-94
2021/09/10 10:35:14;;;;;;;29.20;16.53;;;21.50;99.90;;;;;;6164747;23;20531;-94
2021/09/10 10:38:00;;;;;;;;;;;;;;;;;;;;;
2021/09/10 10:45:21;;;;;;;23.40;14.67;;;21.60;99.90;;;;;;5899933;24;20166;-92
2021/09/10 10:48:17;;;;;;;26.83;15.60;;;21.60;99.90;;;;;;5880660;24;20247;-93
2021/09/10 10:50:48;;;;;;;23.93;15.20;;;21.30;99.90;;;;;;5970860;23;20192;-93
2021/09/10 10:53:16;;;;;;;30.13;17.43;;;21.20;99.90;;;;;;6151598;23;20152;-93
2021/09/10 10:55:42;;;;;;;29.83;19.30;;;21.20;99.90;;;;;;6162283;23;20148;-92
2021/09/10 10:58:27;;;;;;;41.23;21.53;;;21.30;99.90;;;;;;6161780;23;20522;-93
2021/09/10 11:01:00;;;;;;;37.93;21.70;;;21.40;99.90;;;;;;6161700;23;20163;-93
2021/09/10 11:03:26;;;;;;;37.57;21.63;;;21.40;99.90;;;;;;6161805;23;20167;-92
2021/09/10 11:05:54;;;;;;;36.53;21.13;;;21.40;99.90;;;;;;6161883;23;20151;-92
2021/09/10 11:08:43;;;;;;;38.40;22.03;;;21.50;99.90;;;;;;6161550;23;20143;-91
2021/09/10 11:11:11;;;;;;;35.83;19.80;;;21.70;99.90;;;;;;6161753;23;20187;-91
2021/09/10 11:13:41;;;;;;;33.73;20.77;;;21.80;99.90;;;;;;6162042;23;20173;-93
2021/09/10 11:16:09;;;;;;;32.27;19.93;;;21.80;99.90;;;;;;6161355;23;20176;-91
2021/09/10 11:18:37;;;;;;;29.20;20.57;;;21.90;99.90;;;;;;6161760;23;20203;-92
2021/09/10 11:21:07;;;;;;;28.73;19.20;;;22.10;99.90;;;;;;6165314;23;20141;-91
2021/09/10 11:23:36;;;;;;;21.60;15.57;;;22.20;99.90;;;;;;6164888;23;20202;-94
2021/09/10 11:26:05;;;;;;;20.23;14.13;;;22.40;99.90;;;;;;6176324;23;20180;-95
2021/09/10 11:28:33;;;;;;;16.33;12.93;;;22.50;99.90;;;;;;6174914;23;20233;-92
2021/09/10 11:30:59;;;;;;;15.00;12.90;;;22.50;99.90;;;;;;6164459;23;20196;-95
2021/09/10 11:33:26;;;;;;;13.57;11.20;;;22.60;99.90;;;;;;6163271;23;20259;-94
2021/09/10 11:35:53;;;;;;;14.17;10.67;;;22.60;99.90;;;;;;6162870;23;20152;-94
2021/09/10 11:38:22;;;;;;;11.63;9.60;;;22.70;99.90;;;;;;6163568;23;20144;-95
2021/09/10 11:40:52;;;;;;;14.83;10.17;;;22.80;99.90;;;;;;6160720;23;20147;-95
2021/09/10 11:43:26;;;;;;;12.53;9.47;;;22.80;99.90;;;;;;6160609;23;20156;-94
2021/09/10 11:46:00;;;;;;;13.30;9.40;;;22.80;99.90;;;;;;6160869;23;20171;-96
2021/09/10 11:48:33;;;;;;;12.03;8.70;;;22.90;99.90;;;;;;6162883;23;20136;-96
2021/09/10 11:51:10;;;;;;;11.07;8.50;;;23.10;99.90;;;;;;6162426;23;20283;-95
2021/09/10 11:53:49;;;;;;;11.17;8.83;;;23.20;99.90;;;;;;6163496;23;20190;-94
2021/09/10 11:56:18;;;;;;;10.53;8.00;;;23.20;99.90;;;;;;6163027;23;20141;-95
2021/09/10 11:58:46;;;;;;;11.03;8.07;;;23.30;99.90;;;;;;6161178;23;20147;-94
2021/09/10 12:01:13;;;;;;;9.93;7.63;;;23.60;99.90;;;;;;6162461;23;20598;-95
2021/09/10 12:03:47;;;;;;;9.40;7.27;;;23.80;99.90;;;;;;6166982;23;20186;-94
2021/09/10 12:06:17;;;;;;;8.03;7.10;;;24.20;99.90;;;;;;6162331;23;20231;-94
2021/09/10 12:09:11;;;;;;;9.23;6.27;;;24.50;99.90;;;;;;6162540;23;20152;-94
2021/09/10 12:11:54;;;;;;;8.23;5.50;;;25.00;99.90;;;;;;6111107;23;20196;-96
2021/09/10 12:14:20;;;;;;;8.50;5.53;;;25.80;99.90;;;;;;6162614;23;20149;-96
2021/09/10 12:17:03;;;;;;;8.93;5.43;;;26.00;99.90;;;;;;6163625;23;20150;-96
2021/09/10 12:19:29;;;;;;;7.60;4.93;;;26.20;99.90;;;;;;6163337;23;20580;-96
2021/09/10 12:21:57;;;;;;;8.47;5.40;;;26.40;99.90;;;;;;6162732;23;20161;-94
2021/09/10 12:24:23;;;;;;;5.17;4.60;;;26.40;99.90;;;;;;6162194;23;20147;-94
2021/09/10 12:26:54;;;;;;;6.87;5.13;;;26.30;99.90;;;;;;6161768;23;20239;-95
2021/09/10 12:29:25;;;;;;;5.10;4.60;;;26.50;99.90;;;;;;6161437;23;20182;-95
2021/09/10 12:31:54;;;;;;;5.80;4.70;;;26.60;99.90;;;;;;6162581;23;20184;-96
2021/09/10 12:34:23;;;;;;;5.73;5.10;;;26.70;99.90;;;;;;6163105;23;20160;-94
2021/09/10 12:36:55;;;;;;;7.53;4.97;;;26.60;99.90;;;;;;6154480;23;20143;-90
2021/09/10 12:39:23;;;;;;;8.67;4.97;;;26.50;99.90;;;;;;6184132;23;20131;-89
2021/09/10 12:42:30;;;;;;;9.53;5.20;;;26.70;99.90;;;;;;6213898;23;20144;-90
2021/09/10 12:44:56;;;;;;;8.13;5.13;;;26.70;99.90;;;;;;6205773;23;20543;-90
2021/09/10 12:47:22;;;;;;;9.27;5.70;;;26.70;99.90;;;;;;6181296;23;20152;-90
2021/09/10 12:49:50;;;;;;;8.23;5.27;;;26.40;99.90;;;;;;6180551;23;20182;-90
2021/09/10 12:52:23;;;;;;;9.47;5.67;;;26.00;99.90;;;;;;6153161;23;20236;-90
2021/09/10 12:54:58;;;;;;;6.93;5.20;;;26.00;99.90;;;;;;6204220;23;20120;-91
2021/09/10 12:57:49;;;;;;;6.10;5.10;;;26.20;99.90;;;;;;6205403;23;20140;-93
2021/09/10 13:00:23;;;;;;;6.70;5.70;;;26.60;99.90;;;;;;6179646;23;20141;-94
2021/09/10 13:02:59;;;;;;;7.07;5.40;;;26.80;99.90;;;;;;6179595;23;20142;-90
2021/09/10 13:05:32;;;;;;;9.47;6.10;;;27.10;99.90;;;;;;6179133;23;20155;-90
2021/09/10 13:08:08;;;;;;;8.67;5.83;;;27.70;99.90;;;;;;6176912;23;20172;-89